Terminal Aerodrome Forecast
Issued by NWS

Home | Current Version | Previous Version | Graphics & Text | Print | Product List | Glossary On
Versions: 1 2 3 4 5 6 7 8 9 10 11 12 13 14 15 16 17 18 19 20 21
000
FTUS43 KBIS 011100
TAFJMS
TAF
KJMS 011135Z 0112/0212 21012KT P6SM BKN020 OVC035
     FM011500 26016G22KT P6SM BKN025 OVC035
     FM011800 28020G30KT P6SM BKN035
     FM020200 29012KT P6SM BKN040
     FM020800 29005KT P6SM SCT040=

USA.gov is the U.S. government's official web portal to all federal, state and local government web resources and services.